createdAt,value
2019-04-23T00:00:07.565Z,6.53
2019-04-23T00:05:29.100Z,6.93
2019-04-23T00:08:07.684Z,7.10
2019-04-23T00:10:30.041Z,6.80
2019-04-23T00:12:58.648Z,6.77
2019-04-23T00:15:43.867Z,6.57
2019-04-23T00:18:22.563Z,7.07
2019-04-23T00:20:47.727Z,6.87
2019-04-23T00:23:25.833Z,7.37
2019-04-23T00:28:35.925Z,6.50
2019-04-23T00:31:15.213Z,6.40
2019-04-23T00:33:40.893Z,6.60
2019-04-23T00:36:23.099Z,6.83
2019-04-23T00:38:50.267Z,6.23
2019-04-23T00:41:30.901Z,6.23
2019-04-23T00:46:38.446Z,6.00
2019-04-23T00:49:10.740Z,6.40
2019-04-23T00:51:45.637Z,6.37
2019-04-23T00:54:17.757Z,7.47
2019-04-23T00:56:52.608Z,6.60
2019-04-23T00:59:33.223Z,6.37
2019-04-23T01:02:00.914Z,5.80
2019-04-23T01:04:41.806Z,5.77
2019-04-23T01:07:12.733Z,6.03
2019-04-23T01:09:54.467Z,5.60
2019-04-23T01:15:02.861Z,5.83
2019-04-23T01:17:39.941Z,5.43
2019-04-23T01:20:08.429Z,5.63
2019-04-23T01:22:33.882Z,6.83
2019-04-23T01:25:17.982Z,7.45
2019-04-23T01:28:08.039Z,6.30
2019-04-23T01:30:49.229Z,6.23
2019-04-23T01:33:18.463Z,5.77
2019-04-23T01:36:03.101Z,6.27
2019-04-23T01:38:29.364Z,6.13
2019-04-23T01:41:00.311Z,5.27
2019-04-23T01:43:38.109Z,5.83
2019-04-23T01:46:16.198Z,5.40
2019-04-23T01:48:50.269Z,5.37
2019-04-23T01:51:22.502Z,5.83
2019-04-23T01:53:50.037Z,5.87
2019-04-23T01:59:09.390Z,5.97
2019-04-23T02:01:40.189Z,6.10
2019-04-23T02:04:18.900Z,5.60
2019-04-23T02:06:45.843Z,6.20
2019-04-23T02:09:18.379Z,5.53
2019-04-23T02:11:55.152Z,5.70
2019-04-23T02:14:28.171Z,5.80
2019-04-23T02:17:01.289Z,6.00
2019-04-23T02:19:38.761Z,5.73
2019-04-23T02:22:28.447Z,5.60
2019-04-23T02:24:56.764Z,5.93
2019-04-23T02:27:29.586Z,6.13
2019-04-23T02:30:15.760Z,5.47
2019-04-23T02:32:46.221Z,5.20
2019-04-23T02:35:29.323Z,5.50
2019-04-23T02:38:02.359Z,5.00
2019-04-23T02:40:26.691Z,4.97
2019-04-23T02:43:15.206Z,4.90
2019-04-23T02:45:45.802Z,4.77
2019-04-23T02:50:39.657Z,4.53
2019-04-23T02:55:57.106Z,4.87
2019-04-23T02:58:28.373Z,4.93
2019-04-23T03:01:15.115Z,5.30
2019-04-23T03:03:42.730Z,5.13
2019-04-23T03:06:04.937Z,5.10
2019-04-23T03:13:54.050Z,4.93
2019-04-23T03:19:15.262Z,5.03
2019-04-23T03:21:59.772Z,4.93
2019-04-23T03:24:47.530Z,5.07
2019-04-23T03:29:57.260Z,4.97
2019-04-23T03:40:04.610Z,5.23
2019-04-23T03:50:21.720Z,5.57
2019-04-23T03:52:44.628Z,4.53
2019-04-23T03:55:45.082Z,5.03
2019-04-23T03:58:07.648Z,5.30
2019-04-23T04:01:11.871Z,4.97
2019-04-23T04:03:23.143Z,4.73
2019-04-23T04:06:03.414Z,4.93
2019-04-23T04:11:04.287Z,4.70
2019-04-23T04:16:01.271Z,5.13
2019-04-23T04:18:57.333Z,4.83
2019-04-23T04:21:14.467Z,4.73
2019-04-23T04:23:57.657Z,4.70
2019-04-23T04:26:37.976Z,5.00
2019-04-23T04:29:11.805Z,4.70
2019-04-23T04:37:18.466Z,4.67
2019-04-23T04:39:05.398Z,4.60
2019-04-23T04:42:04.626Z,4.77
2019-04-23T04:44:37.807Z,5.47
2019-04-23T04:46:59.821Z,4.67
2019-04-23T04:49:49.394Z,5.17
2019-04-23T04:54:26.268Z,4.90
2019-04-23T04:57:20.817Z,4.80
2019-04-23T05:00:08.333Z,4.97
2019-04-23T05:05:15.885Z,4.80
2019-04-23T05:10:29.813Z,4.93
2019-04-23T05:15:07.259Z,4.73
2019-04-23T05:20:28.463Z,4.00
2019-04-23T05:25:37.848Z,4.23
2019-04-23T05:28:12.475Z,4.10
2019-04-23T05:30:51.535Z,3.87
2019-04-23T05:33:21.856Z,4.60
2019-04-23T05:38:50.807Z,4.77
2019-04-23T05:43:45.106Z,4.63
2019-04-23T05:48:54.389Z,4.20
2019-04-23T05:51:28.245Z,4.73
2019-04-23T05:53:58.420Z,4.10
2019-04-23T05:56:33.751Z,4.10
2019-04-23T05:59:14.657Z,4.10
2019-04-23T06:01:55.743Z,4.33
2019-04-23T06:09:25.295Z,4.30
2019-04-23T06:12:16.907Z,3.97
2019-04-23T06:14:42.604Z,3.90
2019-04-23T06:19:49.753Z,3.97
2019-04-23T06:27:45.991Z,3.97
2019-04-23T06:30:03.978Z,3.33
2019-04-23T06:32:41.395Z,3.90
2019-04-23T06:35:11.842Z,4.07
2019-04-23T06:40:25.270Z,3.83
2019-04-23T06:43:02.742Z,3.93
2019-04-23T06:45:33.464Z,3.67
2019-04-23T06:48:09.046Z,3.47
2019-04-23T06:53:18.494Z,3.13
2019-04-23T06:55:50.693Z,3.43
2019-04-23T06:58:34.251Z,3.30
2019-04-23T07:01:02.843Z,3.33
2019-04-23T07:03:38.788Z,3.27
2019-04-23T07:11:25.866Z,3.43
2019-04-23T07:16:22.827Z,3.60
2019-04-23T07:19:06.374Z,3.70
2019-04-23T07:21:28.040Z,3.80
2019-04-23T07:26:55.423Z,3.37
2019-04-23T07:29:17.836Z,3.50
2019-04-23T07:31:54.592Z,3.67
2019-04-23T07:34:23.332Z,3.67
2019-04-23T07:40:11.294Z,3.57
2019-04-23T07:42:39.111Z,3.50
2019-04-23T07:45:19.224Z,3.05
2019-04-23T07:48:10.876Z,4.20
2019-04-23T07:50:46.159Z,3.77
2019-04-23T07:53:29.293Z,2.93
2019-04-23T07:55:56.408Z,3.30
2019-04-23T07:58:29.254Z,3.83
2019-04-23T08:01:01.343Z,3.67
2019-04-23T08:03:36.526Z,3.73
2019-04-23T08:06:05.837Z,4.23
2019-04-23T08:08:43.232Z,3.90
2019-04-23T08:18:57.771Z,3.63
2019-04-23T08:21:30.672Z,3.40
2019-04-23T08:24:29.222Z,4.40
2019-04-23T08:27:22.407Z,3.67
2019-04-23T08:29:47.832Z,3.73
2019-04-23T08:32:47.348Z,3.67
2019-04-23T08:35:14.066Z,3.90
2019-04-23T08:40:13.337Z,3.90
2019-04-23T08:45:28.689Z,4.13
2019-04-23T08:48:12.422Z,3.90
2019-04-23T08:50:40.690Z,3.83
2019-04-23T08:55:49.470Z,3.80
2019-04-23T08:58:27.421Z,3.70
2019-04-23T09:01:05.143Z,3.70
2019-04-23T09:03:31.345Z,3.30
2019-04-23T09:06:06.246Z,3.80
2019-04-23T09:08:39.396Z,3.37
2019-04-23T09:11:30.769Z,3.50
2019-04-23T09:16:28.434Z,4.20
2019-04-23T09:19:04.075Z,4.60
2019-04-23T09:21:32.622Z,3.90
2019-04-23T09:24:03.865Z,3.57
2019-04-23T09:26:46.066Z,4.33
2019-04-23T09:29:37.698Z,3.97
2019-04-23T09:34:58.643Z,3.90
2019-04-23T09:37:34.669Z,4.43
2019-04-23T09:40:31.497Z,3.57
2019-04-23T09:43:06.967Z,4.00
2019-04-23T09:45:48.715Z,5.60
2019-04-23T09:48:15.648Z,4.30
2019-04-23T09:55:51.319Z,4.03
2019-04-23T09:58:30.053Z,4.27
2019-04-23T10:01:25.862Z,3.97
2019-04-23T10:03:49.334Z,3.75
2019-04-23T10:06:18.517Z,4.37
2019-04-23T10:08:49.977Z,4.80
2019-04-23T10:11:19.904Z,5.37
2019-04-23T10:13:52.773Z,4.50
2019-04-23T10:16:28.433Z,8.43
2019-04-23T10:19:00.966Z,4.63
2019-04-23T10:21:35.315Z,4.07
2019-04-23T10:24:09.452Z,3.80
2019-04-23T10:26:43.907Z,4.37
2019-04-23T10:29:29.827Z,3.73
2019-04-23T10:32:03.869Z,4.13
2019-04-23T10:34:44.962Z,4.23
2019-04-23T10:37:11.402Z,4.47
2019-04-23T10:39:49.272Z,3.97
2019-04-23T10:42:18.354Z,4.47
2019-04-23T10:45:24.039Z,5.13
2019-04-23T10:48:26.309Z,5.03
2019-04-23T10:53:34.266Z,4.67
2019-04-23T10:56:05.830Z,5.17
2019-04-23T10:58:35.176Z,4.20
2019-04-23T11:01:14.933Z,4.33
2019-04-23T11:03:56.555Z,4.77
2019-04-23T11:06:23.484Z,4.77
2019-04-23T11:09:11.392Z,4.80
2019-04-23T11:11:39.190Z,4.97
2019-04-23T11:14:18.977Z,4.17
2019-04-23T11:16:56.655Z,4.83
2019-04-23T11:19:24.827Z,4.40
2019-04-23T11:22:05.586Z,5.10
2019-04-23T11:27:10.303Z,4.90
2019-04-23T11:29:40.804Z,5.13
2019-04-23T11:32:40.819Z,4.80
2019-04-23T11:37:36.247Z,4.90
2019-04-23T11:40:17.242Z,4.63
2019-04-23T11:42:41.263Z,4.70
2019-04-23T11:45:15.793Z,5.53
2019-04-23T11:48:12.649Z,5.20
2019-04-23T11:52:54.405Z,4.83
2019-04-23T11:58:08.212Z,5.30
2019-04-23T12:00:56.218Z,5.37
2019-04-23T12:03:19.359Z,5.47
2019-04-23T12:06:11.574Z,4.87
2019-04-23T12:14:16.565Z,5.10
2019-04-23T12:16:50.553Z,7.77
2019-04-23T12:19:45.782Z,6.37
2019-04-23T12:21:59.003Z,5.77
2019-04-23T12:24:50.408Z,5.40
2019-04-23T12:42:55.192Z,4.53
2019-04-23T12:53:27.561Z,4.63
2019-04-23T12:55:40.378Z,4.73
2019-04-23T12:58:14.523Z,4.90
2019-04-23T13:00:39.977Z,5.40
2019-04-23T13:03:34.178Z,5.13
2019-04-23T13:05:51.337Z,5.20
2019-04-23T13:11:07.969Z,4.67
2019-04-23T13:13:58.698Z,4.87
2019-04-23T13:16:25.492Z,4.87
2019-04-23T13:18:49.745Z,4.90
2019-04-23T13:21:45.260Z,4.63
2019-04-23T13:24:12.129Z,4.40
2019-04-23T13:26:35.613Z,4.73
2019-04-23T13:29:18.760Z,4.70
2019-04-23T13:31:40.304Z,4.47
2019-04-23T13:34:22.577Z,5.20
2019-04-23T13:37:00.486Z,4.37
2019-04-23T13:39:41.790Z,4.70
2019-04-23T13:42:15.213Z,4.80
2019-04-23T13:44:52.119Z,4.83
2019-04-23T13:47:31.687Z,4.83
2019-04-23T13:49:58.470Z,5.40
2019-04-23T13:58:02.943Z,5.33
2019-04-23T14:00:20.691Z,4.83
2019-04-23T14:02:43.965Z,5.30
2019-04-23T14:07:59.587Z,5.67
2019-04-23T14:10:36.708Z,5.60
2019-04-23T14:13:28.508Z,4.90
2019-04-23T14:18:49.062Z,5.23
2019-04-23T14:20:46.891Z,4.93
2019-04-23T14:28:43.529Z,5.20
2019-04-23T14:31:13.422Z,5.90
2019-04-23T14:33:52.715Z,6.03
2019-04-23T14:36:36.141Z,5.90
2019-04-23T14:38:58.003Z,5.37
2019-04-23T14:41:33.902Z,5.30
2019-04-23T14:46:53.083Z,6.10
2019-04-23T14:49:20.564Z,5.37
2019-04-23T14:52:00.357Z,5.30
2019-04-23T14:55:03.039Z,5.47
2019-04-23T14:59:37.741Z,5.67
2019-04-23T15:02:19.542Z,5.60
2019-04-23T15:04:48.293Z,5.03
2019-04-23T15:10:01.115Z,6.20
2019-04-23T15:15:14.395Z,5.63
2019-04-23T15:17:47.233Z,5.60
2019-04-23T15:20:22.760Z,5.10
2019-04-23T15:23:19.676Z,5.70
2019-04-23T15:25:36.857Z,5.70
2019-04-23T15:30:35.554Z,5.90
2019-04-23T15:33:19.903Z,5.87
2019-04-23T15:35:58.762Z,5.63
2019-04-23T15:41:01.891Z,5.70
2019-04-23T15:43:31.542Z,6.13
2019-04-23T15:46:13.126Z,6.20
2019-04-23T15:48:49.888Z,5.20
2019-04-23T15:51:19.893Z,6.00
2019-04-23T15:53:48.586Z,6.73
2019-04-23T16:01:35.095Z,6.00
2019-04-23T16:03:41.828Z,5.33
2019-04-23T16:06:18.574Z,6.37
2019-04-23T16:09:09.584Z,5.33
2019-04-23T16:11:47.840Z,5.70
2019-04-23T16:14:34.894Z,5.80
2019-04-23T16:17:05.093Z,5.90
2019-04-23T16:19:38.510Z,5.87
2019-04-23T16:24:52.583Z,5.80
2019-04-23T16:30:06.293Z,6.13
2019-04-23T16:32:56.127Z,5.93
2019-04-23T16:38:10.294Z,5.73
2019-04-23T16:40:33.177Z,5.57
2019-04-23T16:43:14.514Z,5.80
2019-04-23T16:45:45.525Z,6.13
2019-04-23T16:48:36.680Z,5.73
2019-04-23T16:53:24.112Z,6.13
2019-04-23T16:56:06.895Z,6.30
2019-04-23T17:01:07.302Z,6.30
2019-04-23T17:09:02.462Z,7.53
2019-04-23T17:11:24.902Z,6.23
2019-04-23T17:16:33.912Z,6.53
2019-04-23T17:19:52.325Z,6.77
2019-04-23T17:22:17.993Z,7.10
2019-04-23T17:24:40.391Z,6.80
2019-04-23T17:27:24.165Z,6.90
2019-04-23T17:29:55.791Z,7.40
2019-04-23T17:32:20.937Z,7.23
2019-04-23T17:35:15.481Z,7.47
2019-04-23T17:37:38.112Z,6.47
2019-04-23T17:42:45.517Z,7.10
2019-04-23T17:50:43.815Z,7.03
2019-04-23T17:53:34.525Z,6.20
2019-04-23T17:56:01.505Z,6.97
2019-04-23T18:01:17.743Z,6.80
2019-04-23T18:03:49.542Z,7.10
2019-04-23T18:08:50.932Z,6.40
2019-04-23T18:13:56.782Z,7.97
2019-04-23T18:24:22.760Z,7.53
2019-04-23T18:27:01.233Z,7.03
2019-04-23T18:32:11.357Z,7.67
2019-04-23T18:34:59.657Z,7.20
2019-04-23T18:37:16.583Z,8.60
2019-04-23T18:42:29.455Z,7.57
2019-04-23T18:44:56.162Z,7.03
2019-04-23T18:47:35.605Z,7.57
2019-04-23T18:50:01.985Z,7.07
2019-04-23T18:52:46.598Z,7.30
2019-04-23T18:55:18.779Z,7.87
2019-04-23T18:57:38.315Z,7.87
2019-04-23T19:00:24.611Z,8.10
2019-04-23T19:05:43.351Z,7.73
2019-04-23T19:08:23.467Z,8.30
2019-04-23T19:10:57.405Z,7.83
2019-04-23T19:13:24.777Z,7.47
2019-04-23T19:15:45.876Z,7.93
2019-04-23T19:18:35.224Z,8.40
2019-04-23T19:21:29.573Z,8.40
2019-04-23T19:23:47.607Z,7.83
2019-04-23T19:26:25.765Z,8.83
2019-04-23T19:28:52.947Z,8.97
2019-04-23T19:31:24.617Z,9.37
2019-04-23T19:34:24.757Z,9.93
2019-04-23T19:41:55.448Z,10.20
2019-04-23T19:44:27.418Z,11.27
2019-04-23T19:47:09.330Z,11.20
2019-04-23T19:51:59.389Z,10.17
2019-04-23T19:54:42.744Z,10.33
2019-04-23T19:57:23.556Z,11.60
2019-04-23T19:59:44.763Z,12.77
2019-04-23T20:02:22.095Z,12.70
2019-04-23T20:04:50.751Z,12.47
2019-04-23T20:09:51.632Z,10.37
2019-04-23T20:12:28.310Z,8.90
2019-04-23T20:15:08.490Z,9.03
2019-04-23T20:20:25.443Z,8.60
2019-04-23T20:22:48.582Z,8.20
2019-04-23T20:27:54.120Z,8.63
2019-04-23T20:30:42.604Z,7.93
2019-04-23T20:35:43.682Z,7.87
2019-04-23T20:43:23.584Z,9.10
2019-04-23T20:45:58.759Z,7.97
2019-04-23T20:48:44.732Z,8.80
2019-04-23T20:50:56.435Z,9.57
2019-04-23T20:53:40.004Z,8.20
2019-04-23T20:56:18.138Z,8.40
2019-04-23T21:01:38.313Z,7.90
2019-04-23T21:04:03.298Z,7.57
2019-04-23T21:06:50.267Z,7.77
2019-04-23T21:09:28.189Z,7.23
2019-04-23T21:11:58.075Z,7.50
2019-04-23T21:16:55.585Z,7.50
2019-04-23T21:19:36.680Z,8.00
2019-04-23T21:22:09.900Z,7.40
2019-04-23T21:24:42.377Z,7.30
2019-04-23T21:27:20.448Z,7.27
2019-04-23T21:29:57.035Z,7.30
2019-04-23T21:32:24.739Z,7.00
2019-04-23T21:35:05.590Z,7.20
2019-04-23T21:38:00.398Z,7.50
2019-04-23T21:45:57.835Z,5.97
2019-04-23T21:48:18.858Z,6.63
2019-04-23T21:50:49.025Z,6.63
2019-04-23T21:53:18.466Z,6.40
2019-04-23T22:01:05.129Z,6.60
2019-04-23T22:03:54.100Z,6.43
2019-04-23T22:06:12.403Z,5.70
2019-04-23T22:08:44.075Z,5.83
2019-04-23T22:11:32.735Z,6.30
2019-04-23T22:13:58.253Z,5.83
2019-04-23T22:16:27.799Z,5.93
2019-04-23T22:19:10.535Z,6.13
2019-04-23T22:24:05.691Z,5.33
2019-04-23T22:26:34.741Z,5.77
2019-04-23T22:29:14.607Z,5.83
2019-04-23T22:31:52.039Z,6.17
2019-04-23T22:34:16.778Z,5.40
2019-04-23T22:36:58.016Z,5.77
2019-04-23T22:39:39.907Z,6.50
2019-04-23T22:44:31.102Z,7.20
2019-04-23T22:47:04.304Z,7.20
2019-04-23T22:54:59.298Z,8.00
2019-04-23T22:57:20.969Z,7.90
2019-04-23T23:00:08.407Z,6.87
2019-04-23T23:02:44.333Z,5.77
2019-04-23T23:10:20.266Z,5.30
2019-04-23T23:12:58.488Z,4.80
2019-04-23T23:15:24.462Z,5.33
2019-04-23T23:20:39.678Z,5.13
2019-04-23T23:33:18.819Z,4.83
2019-04-23T23:35:54.067Z,3.90
2019-04-23T23:38:33.489Z,4.43
2019-04-23T23:43:29.724Z,5.00
2019-04-23T23:46:15.239Z,4.43
2019-04-23T23:51:17.405Z,4.67
2019-04-23T23:56:15.399Z,4.40
2019-04-23T23:58:56.926Z,4.80
